createdAt,value
2018-01-12T00:02:05.592Z,5.60
2018-01-12T00:04:33.878Z,5.60
2018-01-12T00:07:02.092Z,5.60
2018-01-12T00:09:29.599Z,5.60
2018-01-12T00:11:57.081Z,5.60
2018-01-12T00:14:24.646Z,5.70
2018-01-12T00:16:52.147Z,5.70
2018-01-12T00:19:19.616Z,5.70
2018-01-12T00:21:47.159Z,5.70
2018-01-12T00:24:14.639Z,5.70
2018-01-12T00:26:42.132Z,5.70
2018-01-12T00:29:09.663Z,5.70
2018-01-12T00:31:37.928Z,5.70
2018-01-12T00:34:05.410Z,5.70
2018-01-12T00:36:33.664Z,5.70
2018-01-12T00:39:01.147Z,5.70
2018-01-12T00:41:28.720Z,5.70
2018-01-12T00:43:56.187Z,5.70
2018-01-12T00:46:23.688Z,5.70
2018-01-12T00:48:51.200Z,5.70
2018-01-12T00:51:18.708Z,5.70
2018-01-12T00:53:46.166Z,5.70
2018-01-12T00:56:14.484Z,5.80
2018-01-12T00:58:41.959Z,5.70
2018-01-12T01:01:09.461Z,5.70
2018-01-12T01:03:37.737Z,5.70
2018-01-12T01:06:05.235Z,5.60
2018-01-12T01:08:32.734Z,5.70
2018-01-12T01:11:00.216Z,5.70
2018-01-12T01:13:28.474Z,5.60
2018-01-12T01:15:55.964Z,5.60
2018-01-12T01:18:23.533Z,5.60
2018-01-12T01:20:50.995Z,5.70
2018-01-12T01:23:18.509Z,5.70
2018-01-12T01:25:46.018Z,5.70
2018-01-12T01:28:13.515Z,5.70
2018-01-12T01:30:40.983Z,5.70
2018-01-12T01:33:08.486Z,5.70
2018-01-12T01:35:35.993Z,5.70
2018-01-12T01:38:03.500Z,5.70
2018-01-12T01:40:31.029Z,5.70
2018-01-12T01:42:58.536Z,5.70
2018-01-12T01:45:26.083Z,5.70
2018-01-12T01:47:53.606Z,5.70
2018-01-12T01:50:21.879Z,5.70
2018-01-12T01:52:49.479Z,5.70
2018-01-12T01:55:16.981Z,5.70
2018-01-12T01:57:44.452Z,5.70
2018-01-12T02:00:12.056Z,5.70
2018-01-12T02:02:39.541Z,5.70
2018-01-12T02:05:07.079Z,5.70
2018-01-12T02:07:34.580Z,5.70
2018-01-12T02:10:02.058Z,5.70
2018-01-12T02:12:30.318Z,5.70
2018-01-12T02:14:57.794Z,5.70
2018-01-12T02:17:26.109Z,5.70
2018-01-12T02:19:53.606Z,5.70
2018-01-12T02:22:21.122Z,5.70
2018-01-12T02:24:48.616Z,5.70
2018-01-12T02:27:16.245Z,5.70
2018-01-12T02:29:43.738Z,5.70
2018-01-12T02:32:11.199Z,5.70
2018-01-12T02:34:38.709Z,5.70
2018-01-12T02:37:06.248Z,5.80
2018-01-12T02:39:33.757Z,5.80
2018-01-12T02:42:01.218Z,5.70
2018-01-12T02:44:28.741Z,5.70
2018-01-12T02:46:56.210Z,5.70
2018-01-12T02:49:23.736Z,5.70
2018-01-12T02:51:51.226Z,5.70
2018-01-12T02:54:18.742Z,5.70
2018-01-12T02:56:47.005Z,5.70
2018-01-12T02:59:14.515Z,5.60
2018-01-12T03:01:41.997Z,5.60
2018-01-12T03:04:09.498Z,5.60
2018-01-12T03:06:37.760Z,6.80
2018-01-12T03:09:06.024Z,5.60
2018-01-12T03:11:33.512Z,5.60
2018-01-12T03:14:01.767Z,5.60
2018-01-12T03:16:30.039Z,5.60
2018-01-12T03:18:57.533Z,5.60
2018-01-12T03:21:25.014Z,5.60
2018-01-12T03:23:52.515Z,5.60
2018-01-12T03:26:20.768Z,5.60
2018-01-12T03:28:48.263Z,5.50
2018-01-12T03:31:15.737Z,5.60
2018-01-12T03:33:43.276Z,5.60
2018-01-12T03:36:10.776Z,5.60
2018-01-12T03:38:38.276Z,5.60
2018-01-12T03:41:05.752Z,5.50
2018-01-12T03:43:33.295Z,5.50
2018-01-12T03:46:00.765Z,5.50
2018-01-12T03:48:28.223Z,5.50
2018-01-12T03:50:56.485Z,5.50
2018-01-12T03:53:23.966Z,5.50
2018-01-12T03:55:53.859Z,5.50
2018-01-12T03:58:21.322Z,5.50
2018-01-12T04:00:48.927Z,5.50
2018-01-12T04:03:16.397Z,5.50
2018-01-12T04:05:43.911Z,5.50
2018-01-12T04:08:12.146Z,5.50
2018-01-12T04:10:39.688Z,5.50
2018-01-12T04:13:07.158Z,5.50
2018-01-12T04:15:34.644Z,5.50
2018-01-12T04:18:02.140Z,5.50
2018-01-12T04:20:29.612Z,5.50
2018-01-12T04:22:57.134Z,5.50
2018-01-12T04:25:25.377Z,5.50
2018-01-12T04:27:52.856Z,5.50
2018-01-12T04:30:20.353Z,5.60
2018-01-12T04:32:47.818Z,5.60
2018-01-12T04:35:15.326Z,5.60
2018-01-12T04:37:42.846Z,5.50
2018-01-12T04:40:14.572Z,5.50
2018-01-12T04:42:42.079Z,5.50
2018-01-12T04:45:09.687Z,5.50
2018-01-12T04:47:37.195Z,5.50
2018-01-12T04:50:04.759Z,5.50
2018-01-12T04:52:32.300Z,5.40
2018-01-12T04:55:00.567Z,5.50
2018-01-12T04:57:28.057Z,5.40
2018-01-12T04:59:55.578Z,5.50
2018-01-12T05:02:23.044Z,5.50
2018-01-12T05:04:50.572Z,5.40
2018-01-12T05:07:18.222Z,5.50
2018-01-12T05:09:46.456Z,5.50
2018-01-12T05:12:13.959Z,5.40
2018-01-12T05:14:41.693Z,5.50
2018-01-12T05:17:09.244Z,5.40
2018-01-12T05:19:36.761Z,5.40
2018-01-12T05:22:04.285Z,5.50
2018-01-12T05:24:32.531Z,5.50
2018-01-12T05:27:00.160Z,5.50
2018-01-12T05:29:27.624Z,5.50
2018-01-12T05:31:55.125Z,5.50
2018-01-12T05:34:22.605Z,5.50
2018-01-12T05:36:50.096Z,5.50
2018-01-12T05:39:17.588Z,5.50
2018-01-12T05:41:45.108Z,5.50
2018-01-12T05:44:12.579Z,5.50
2018-01-12T05:46:40.093Z,5.90
2018-01-12T05:49:08.330Z,5.50
2018-01-12T05:51:35.868Z,5.50
2018-01-12T05:54:03.355Z,5.60
2018-01-12T05:56:30.859Z,5.60
2018-01-12T05:58:58.330Z,5.60
2018-01-12T06:01:37.779Z,5.70
2018-01-12T06:04:17.151Z,5.70
2018-01-12T06:06:44.653Z,5.60
2018-01-12T06:09:12.135Z,5.50
2018-01-12T06:11:39.756Z,5.40
2018-01-12T06:14:08.015Z,5.20
2018-01-12T06:16:35.483Z,5.10
2018-01-12T06:19:03.837Z,4.90
2018-01-12T06:21:31.325Z,4.90
2018-01-12T06:23:59.618Z,4.70
2018-01-12T06:26:27.136Z,4.70
2018-01-12T06:28:54.642Z,4.60
2018-01-12T06:31:22.124Z,4.50
2018-01-12T06:33:49.610Z,4.40
2018-01-12T06:36:17.108Z,4.40
2018-01-12T06:38:44.598Z,4.30
2018-01-12T06:41:12.070Z,4.20
2018-01-12T06:43:39.588Z,4.10
2018-01-12T06:46:07.068Z,4.10
2018-01-12T06:48:34.549Z,4.10
2018-01-12T06:51:02.045Z,4.00
2018-01-12T06:53:29.548Z,4.00
2018-01-12T06:55:57.047Z,4.00
2018-01-12T06:58:25.325Z,4.00
2018-01-12T07:00:53.621Z,4.00
2018-01-12T07:03:21.524Z,3.90
2018-01-12T07:05:49.980Z,3.90
2018-01-12T07:08:17.449Z,3.90
2018-01-12T07:10:44.965Z,3.90
2018-01-12T07:13:13.256Z,3.90
2018-01-12T07:15:40.737Z,3.90
2018-01-12T07:18:08.248Z,4.00
2018-01-12T07:20:57.443Z,4.00
2018-01-12T07:23:36.804Z,4.00
2018-01-12T07:26:04.273Z,4.00
2018-01-12T07:28:31.785Z,4.10
2018-01-12T07:30:59.251Z,4.10
2018-01-12T07:33:26.763Z,4.10
2018-01-12T07:35:54.228Z,4.00
2018-01-12T07:38:21.729Z,4.00
2018-01-12T07:40:49.339Z,4.00
2018-01-12T07:43:16.997Z,4.00
2018-01-12T07:45:44.467Z,4.00
2018-01-12T07:48:12.010Z,4.00
2018-01-12T07:50:39.486Z,4.00
2018-01-12T07:53:12.902Z,4.10
2018-01-12T07:55:41.152Z,4.10
2018-01-12T07:58:08.645Z,4.10
2018-01-12T08:00:41.911Z,4.10
2018-01-12T08:03:09.379Z,4.10
2018-01-12T08:05:37.658Z,4.10
2018-01-12T08:08:05.942Z,4.20
2018-01-12T08:10:34.216Z,4.20
2018-01-12T08:13:01.695Z,4.20
2018-01-12T08:15:29.202Z,4.30
2018-01-12T08:17:56.676Z,4.30
2018-01-12T08:20:24.967Z,4.40
2018-01-12T08:22:53.208Z,4.50
2018-01-12T08:25:20.688Z,4.50
2018-01-12T08:27:48.959Z,4.60
2018-01-12T08:30:16.437Z,4.60
2018-01-12T08:32:43.960Z,4.70
2018-01-12T08:35:11.426Z,4.70
2018-01-12T08:37:38.934Z,4.80
2018-01-12T08:40:06.404Z,4.90
2018-01-12T08:42:33.931Z,5.00
2018-01-12T08:45:01.414Z,5.20
2018-01-12T08:47:28.934Z,6.20
2018-01-12T08:49:57.163Z,5.40
2018-01-12T08:52:24.693Z,5.40
2018-01-12T08:54:52.174Z,5.60
2018-01-12T08:57:19.715Z,5.70
2018-01-12T08:59:47.226Z,5.80
2018-01-12T09:02:14.699Z,5.90
2018-01-12T09:04:42.966Z,6.10
2018-01-12T09:07:10.441Z,6.10
2018-01-12T09:09:37.944Z,6.20
2018-01-12T09:12:06.342Z,6.30
2018-01-12T09:14:45.577Z,6.40
2018-01-12T09:17:13.059Z,6.50
2018-01-12T09:19:48.216Z,6.60
2018-01-12T09:22:27.559Z,6.60
2018-01-12T09:24:55.074Z,6.60
2018-01-12T09:27:22.542Z,6.70
2018-01-12T09:29:50.824Z,6.90
2018-01-12T09:32:19.097Z,7.00
2018-01-12T09:35:02.234Z,7.10
2018-01-12T09:37:30.700Z,7.20
2018-01-12T09:40:09.979Z,7.20
2018-01-12T09:42:37.510Z,7.30
2018-01-12T09:45:05.758Z,7.60
2018-01-12T09:47:40.046Z,7.50
2018-01-12T09:50:07.524Z,7.70
2018-01-12T09:52:35.029Z,7.90
2018-01-12T09:55:02.563Z,8.10
2018-01-12T09:57:30.833Z,8.40
2018-01-12T09:59:59.095Z,8.70
2018-01-12T10:02:26.566Z,8.70
2018-01-12T10:04:54.108Z,9.10
2018-01-12T10:07:21.592Z,9.30
2018-01-12T10:09:49.865Z,9.60
2018-01-12T10:12:18.098Z,9.60
2018-01-12T10:14:45.624Z,9.60
2018-01-12T10:17:13.152Z,9.50
2018-01-12T10:22:49.708Z,9.70
2018-01-12T10:25:17.204Z,9.80
2018-01-12T10:27:45.462Z,10.00
2018-01-12T10:30:22.887Z,10.00
2018-01-12T10:33:05.532Z,10.10
2018-01-12T10:35:33.016Z,10.30
2018-01-12T10:38:00.521Z,10.50
2018-01-12T10:40:51.424Z,10.70
2018-01-12T10:43:18.972Z,11.00
2018-01-12T10:45:58.978Z,11.90
2018-01-12T10:48:39.190Z,11.90
2018-01-12T10:53:48.243Z,12.30
2018-01-12T10:56:15.725Z,12.40
2018-01-12T10:58:43.236Z,12.60
2018-01-12T11:01:11.483Z,13.10
2018-01-12T11:03:39.033Z,13.10
2018-01-12T11:06:07.926Z,13.10
2018-01-12T11:08:36.652Z,13.30
2018-01-12T11:11:04.959Z,13.20
2018-01-12T11:13:32.441Z,13.20
2018-01-12T11:15:59.960Z,13.40
2018-01-12T11:18:27.449Z,13.40
2018-01-12T11:20:54.973Z,13.30
2018-01-12T11:23:22.441Z,12.70
2018-01-12T11:25:49.955Z,13.00
2018-01-12T11:28:17.442Z,13.30
2018-01-12T11:30:44.952Z,13.50
2018-01-12T11:33:12.432Z,13.50
2018-01-12T11:35:40.731Z,13.00
2018-01-12T11:38:08.993Z,12.70
2018-01-12T11:40:36.499Z,12.70
2018-01-12T11:43:03.970Z,12.40
2018-01-12T11:45:31.514Z,12.20
2018-01-12T11:47:59.016Z,12.10
2018-01-12T11:50:26.499Z,12.10
2018-01-12T11:52:54.805Z,12.20
2018-01-12T11:55:22.271Z,12.20
2018-01-12T11:57:49.773Z,12.40
2018-01-12T12:00:17.252Z,12.40
2018-01-12T12:02:45.530Z,12.40
2018-01-12T12:05:13.799Z,12.70
2018-01-12T12:07:42.071Z,12.90
2018-01-12T12:10:10.325Z,13.00
2018-01-12T12:12:37.826Z,12.90
2018-01-12T12:15:05.321Z,12.70
2018-01-12T12:17:32.844Z,12.70
2018-01-12T12:20:00.331Z,12.50
2018-01-12T12:22:27.962Z,12.50
2018-01-12T12:24:55.448Z,12.50
2018-01-12T12:27:22.929Z,12.40
2018-01-12T12:29:50.462Z,12.40
2018-01-12T12:32:17.980Z,12.20
2018-01-12T12:34:46.239Z,11.90
2018-01-12T12:37:13.733Z,11.90
2018-01-12T12:39:41.245Z,12.00
2018-01-12T12:42:08.719Z,12.00
2018-01-12T12:44:36.991Z,12.40
2018-01-12T12:47:05.268Z,12.70
2018-01-12T12:49:33.547Z,12.90
2018-01-12T12:52:01.811Z,12.90
2018-01-12T12:54:29.323Z,12.80
2018-01-12T12:56:56.805Z,13.20
2018-01-12T12:59:24.364Z,13.30
2018-01-12T13:01:51.850Z,13.30
2018-01-12T13:04:19.374Z,13.20
2018-01-12T13:06:46.893Z,13.20
2018-01-12T13:09:15.143Z,12.90
2018-01-12T13:11:42.707Z,12.80
2018-01-12T13:14:10.179Z,12.60
2018-01-12T13:16:37.786Z,12.40
2018-01-12T13:19:05.296Z,12.40
2018-01-12T13:21:32.767Z,12.30
2018-01-12T13:24:00.284Z,12.30
2018-01-12T13:26:28.496Z,12.30
2018-01-12T13:28:56.025Z,12.30
2018-01-12T13:31:23.583Z,12.10
2018-01-12T13:33:51.062Z,12.00
2018-01-12T13:36:18.572Z,12.10
2018-01-12T13:38:46.083Z,12.00
2018-01-12T13:41:13.573Z,11.90
2018-01-12T13:43:41.141Z,12.00
2018-01-12T13:46:08.593Z,12.10
2018-01-12T13:48:36.105Z,12.10
2018-01-12T13:51:03.611Z,12.20
2018-01-12T13:53:31.155Z,12.40
2018-01-12T13:55:58.628Z,12.50
2018-01-12T13:58:26.147Z,12.70
2018-01-12T14:00:54.354Z,12.80
2018-01-12T14:03:21.883Z,12.80
2018-01-12T14:05:50.125Z,14.10
2018-01-12T14:08:17.684Z,14.10
2018-01-12T14:10:45.180Z,14.90
2018-01-12T14:13:12.721Z,15.90
2018-01-12T14:15:40.215Z,16.50
2018-01-12T14:18:07.711Z,17.10
2018-01-12T14:20:35.222Z,17.60
2018-01-12T14:23:02.725Z,17.40
2018-01-12T14:25:30.256Z,16.80
2018-01-12T14:27:57.747Z,16.30
2018-01-12T14:30:25.365Z,15.60
2018-01-12T14:32:52.844Z,14.90
2018-01-12T14:35:20.364Z,14.40
2018-01-12T14:37:47.893Z,13.70
2018-01-12T14:40:15.424Z,13.10
2018-01-12T14:42:42.955Z,12.80
2018-01-12T14:45:10.959Z,12.60
2018-01-12T14:47:38.485Z,12.30
2018-01-12T14:50:05.989Z,12.10
2018-01-12T14:52:33.531Z,11.80
2018-01-12T14:55:01.005Z,11.70
2018-01-12T14:57:28.592Z,11.60
2018-01-12T14:59:56.851Z,11.10
2018-01-12T15:02:24.391Z,11.10
2018-01-12T15:04:51.911Z,10.90
2018-01-12T15:07:19.425Z,10.80
2018-01-12T15:09:47.253Z,10.70
2018-01-12T15:12:14.744Z,9.50
2018-01-12T15:14:42.275Z,10.50
2018-01-12T15:17:09.777Z,10.40
2018-01-12T15:19:38.072Z,10.10
2018-01-12T15:22:05.554Z,10.00
2018-01-12T15:24:33.067Z,10.00
2018-01-12T15:27:01.315Z,9.70
2018-01-12T15:29:29.179Z,9.60
2018-01-12T15:31:56.673Z,9.50
2018-01-12T15:34:25.665Z,9.10
2018-01-12T15:36:53.205Z,9.10
2018-01-12T15:39:20.936Z,8.90
2018-01-12T15:41:48.508Z,8.80
2018-01-12T15:44:15.975Z,8.60
2018-01-12T15:46:43.510Z,8.40
2018-01-12T15:49:10.988Z,8.20
2018-01-12T15:51:38.514Z,8.10
2018-01-12T15:54:06.008Z,8.00
2018-01-12T15:56:36.382Z,7.90
2018-01-12T15:59:03.954Z,7.70
2018-01-12T16:01:31.467Z,7.60
2018-01-12T16:03:58.953Z,7.50
2018-01-12T16:06:26.484Z,7.30
2018-01-12T16:08:53.977Z,7.10
2018-01-12T16:11:21.484Z,6.90
2018-01-12T16:13:49.003Z,6.80
2018-01-12T16:16:16.486Z,6.60
2018-01-12T16:18:44.012Z,6.40
2018-01-12T16:21:11.498Z,6.30
2018-01-12T16:23:39.208Z,6.10
2018-01-12T16:26:07.124Z,6.00
2018-01-12T16:28:34.685Z,5.80
2018-01-12T16:31:03.132Z,5.60
2018-01-12T16:33:30.677Z,5.60
2018-01-12T16:35:58.500Z,5.60
2018-01-12T16:38:26.102Z,5.40
2018-01-12T16:40:54.458Z,5.20
2018-01-12T16:43:21.984Z,5.20
2018-01-12T16:45:49.466Z,5.10
2018-01-12T16:48:16.986Z,5.00
2018-01-12T16:50:45.455Z,4.70
2018-01-12T16:53:13.299Z,4.70
2018-01-12T16:55:41.619Z,4.50
2018-01-12T16:58:09.093Z,4.50
2018-01-12T17:00:36.630Z,4.50
2018-01-12T17:03:04.135Z,4.40
2018-01-12T17:05:31.685Z,4.30
2018-01-12T17:08:00.047Z,4.20
2018-01-12T17:10:27.568Z,4.10
2018-01-12T17:12:55.077Z,4.10
2018-01-12T17:15:22.573Z,4.00
2018-01-12T17:17:50.841Z,3.90
2018-01-12T17:20:19.151Z,3.80
2018-01-12T17:22:46.650Z,3.80
2018-01-12T17:25:14.249Z,3.70
2018-01-12T17:27:41.728Z,3.60
2018-01-12T17:30:09.243Z,3.50
2018-01-12T17:32:37.529Z,3.40
2018-01-12T17:35:05.773Z,3.30
2018-01-12T17:37:33.300Z,3.20
2018-01-12T17:40:00.808Z,3.20
2018-01-12T17:42:28.334Z,3.10
2018-01-12T17:44:55.808Z,3.10
2018-01-12T17:47:23.345Z,3.00
2018-01-12T17:49:51.685Z,2.90
2018-01-12T17:52:19.159Z,2.80
2018-01-12T17:54:46.672Z,2.80
2018-01-12T17:57:14.537Z,2.80
2018-01-12T17:59:42.670Z,2.70
2018-01-12T18:02:10.390Z,2.70
2018-01-12T18:04:38.663Z,2.60
2018-01-12T18:07:06.937Z,2.60
2018-01-12T18:09:34.436Z,2.50
2018-01-12T18:12:01.918Z,2.50
2018-01-12T18:14:29.436Z,2.50
2018-01-12T18:16:56.920Z,2.40
2018-01-12T18:19:24.420Z,2.40
2018-01-12T18:21:51.928Z,2.30
2018-01-12T18:24:19.609Z,2.30
2018-01-12T18:26:47.117Z,2.20
2018-01-12T18:29:15.402Z,2.10
2018-01-12T18:31:42.902Z,2.10
2018-01-12T18:34:10.402Z,2.00
2018-01-12T18:36:37.910Z,1.90
2018-01-12T18:39:05.411Z,1.90
2018-01-12T18:41:32.920Z,1.80
2018-01-12T18:44:00.419Z,1.70
2018-01-12T18:46:27.941Z,1.70
2018-01-12T18:48:55.476Z,1.60
2018-01-12T18:51:22.989Z,1.50
2018-01-12T18:53:50.492Z,1.50
2018-01-12T18:56:19.229Z,1.50
2018-01-12T18:58:46.728Z,1.40
2018-01-12T19:01:15.021Z,1.40
2018-01-12T19:03:43.072Z,1.40
2018-01-12T19:06:11.365Z,1.30
2018-01-12T19:08:39.151Z,1.30
2018-01-12T19:11:06.651Z,1.30
2018-01-12T19:13:34.185Z,1.30
2018-01-12T19:16:01.940Z,1.30
2018-01-12T19:18:29.552Z,1.20
2018-01-12T19:20:58.032Z,1.10
2018-01-12T19:23:25.870Z,1.10
2018-01-12T19:25:53.389Z,1.10
2018-01-12T19:28:20.903Z,1.10
2018-01-12T19:30:49.207Z,1.00
2018-01-12T19:33:16.764Z,1.00
2018-01-12T19:35:44.262Z,1.00
2018-01-12T19:38:11.930Z,1.00
2018-01-12T19:40:39.421Z,1.00
2018-01-12T19:43:07.683Z,0.90
2018-01-12T19:45:35.556Z,0.90
2018-01-12T19:48:03.945Z,0.80
2018-01-12T19:50:32.226Z,0.80
2018-01-12T19:53:00.467Z,0.80
2018-01-12T19:55:28.037Z,0.70
2018-01-12T19:57:55.514Z,0.80
2018-01-12T20:00:23.065Z,0.70
2018-01-12T20:02:50.543Z,0.70
2018-01-12T20:05:18.051Z,0.70
2018-01-12T20:07:45.525Z,0.70
2018-01-12T20:10:14.254Z,0.70
2018-01-12T20:12:41.743Z,0.70
2018-01-12T20:15:09.763Z,0.70
2018-01-12T20:17:37.307Z,0.70
2018-01-12T20:20:05.441Z,0.60
2018-01-12T20:22:32.936Z,0.70
2018-01-12T20:25:00.449Z,0.70
2018-01-12T20:27:27.976Z,0.70
2018-01-12T20:29:56.244Z,0.60
2018-01-12T20:32:25.331Z,0.60
2018-01-12T20:34:52.906Z,0.60
2018-01-12T20:37:21.203Z,0.50
2018-01-12T20:39:48.724Z,0.50
2018-01-12T20:42:16.321Z,0.50
2018-01-12T20:44:43.853Z,0.50
2018-01-12T20:47:12.162Z,0.40
2018-01-12T20:49:39.703Z,0.40
2018-01-12T20:52:07.313Z,0.40
2018-01-12T20:54:34.818Z,0.40
2018-01-12T20:57:02.344Z,0.40
2018-01-12T20:59:29.852Z,0.30
2018-01-12T21:01:57.351Z,0.30
2018-01-12T21:04:25.366Z,0.30
2018-01-12T21:06:52.861Z,0.30
2018-01-12T21:09:20.375Z,0.30
2018-01-12T21:11:47.884Z,0.30
2018-01-12T21:14:15.438Z,0.30
2018-01-12T21:16:42.933Z,0.30
2018-01-12T21:19:10.416Z,0.20
2018-01-12T21:21:37.934Z,0.20
2018-01-12T21:24:05.437Z,0.20
2018-01-12T21:26:32.958Z,0.20
2018-01-12T21:29:00.451Z,0.20
2018-01-12T21:31:27.987Z,0.20
2018-01-12T21:33:55.461Z,0.30
2018-01-12T21:36:22.982Z,0.40
2018-01-12T21:38:50.501Z,1.90
2018-01-12T21:41:18.187Z,0.60
2018-01-12T21:43:45.686Z,0.80
2018-01-12T21:46:14.689Z,1.00
2018-01-12T21:48:42.997Z,1.10
2018-01-12T21:51:10.514Z,1.10
2018-01-12T21:53:40.212Z,1.20
2018-01-12T21:56:07.965Z,1.20
2018-01-12T21:58:35.512Z,1.30
2018-01-12T22:01:03.015Z,1.40
2018-01-12T22:03:30.522Z,1.40
2018-01-12T22:05:57.995Z,1.40
2018-01-12T22:08:25.826Z,1.50
2018-01-12T22:10:53.296Z,1.50
2018-01-12T22:13:20.797Z,1.60
2018-01-12T22:15:48.294Z,1.70
2018-01-12T22:18:15.790Z,1.70
2018-01-12T22:20:43.285Z,1.80
2018-01-12T22:23:11.542Z,1.90
2018-01-12T22:25:39.023Z,1.90
2018-01-12T22:28:07.296Z,2.00
2018-01-12T22:30:35.531Z,2.00
2018-01-12T22:33:03.026Z,2.00
2018-01-12T22:35:31.285Z,2.10
2018-01-12T22:37:58.794Z,2.10
2018-01-12T22:40:26.273Z,2.10
2018-01-12T22:42:53.774Z,2.10
2018-01-12T22:45:22.040Z,2.20
2018-01-12T22:47:49.562Z,2.20
2018-01-12T22:50:17.027Z,2.20
2018-01-12T22:52:44.553Z,2.20
2018-01-12T22:55:13.455Z,2.20
2018-01-12T22:57:40.994Z,2.20
2018-01-12T23:00:08.474Z,2.20
2018-01-12T23:02:35.983Z,2.30
2018-01-12T23:05:03.462Z,2.20
2018-01-12T23:07:31.016Z,2.20
2018-01-12T23:09:59.286Z,2.20
2018-01-12T23:12:27.522Z,2.30
2018-01-12T23:14:55.050Z,2.30
2018-01-12T23:17:22.543Z,2.30
2018-01-12T23:19:50.045Z,2.40
2018-01-12T23:22:18.284Z,2.50
2018-01-12T23:24:45.825Z,2.50
2018-01-12T23:27:13.292Z,2.50
2018-01-12T23:29:40.769Z,2.60
2018-01-12T23:32:08.301Z,2.60
2018-01-12T23:34:35.839Z,2.60
2018-01-12T23:37:03.311Z,2.70
2018-01-12T23:39:30.777Z,2.70
2018-01-12T23:41:58.330Z,2.70
2018-01-12T23:44:25.812Z,2.80
2018-01-12T23:46:53.324Z,2.80
2018-01-12T23:49:20.787Z,2.80
2018-01-12T23:51:48.344Z,2.80
2018-01-12T23:54:15.835Z,2.80
2018-01-12T23:56:43.330Z,2.80
2018-01-12T23:59:11.574Z,2.90
